Airfield :
LOGIN :

Register | Disclaimer

   EN    FR    IT 

 










Legend :    VFR   Marginal VFR   IFR   Intensive IFR   Very Intensive IFR
Visi :
Ceiling :
>= 8 km
>= 3000ft
5 to 8 km
1000 to 3000 ft
1500m to 5 km
500 to 1000 ft
800 to 1500m
200 to 500 ft
< 800m
< 200 ft
Symbols :   Thunderstorms  Fog  Heavy snow  Heavy precipitations  Wind > 20 kt
SIGMETs :     Misc.  Thunderstorms  Icing  Turbulence  Mountain Waves  Volcanic Ashes







- Airport Elevation : 13 ft
- IATA code : OST


EBOS - Oostend bruges Int.

CURRENT METAR :
  • 180620Z 35015KT 9999 FEW018 SCT044 07/04 Q1022 NOSIG

EXPIRED METARs :
  • 180550Z 34013KT 9999 -SHRA FEW018 07/04 Q1022 NOSIG
  • 180520Z 34015KT 9999 FEW020 07/04 Q1021 NOSIG
  • 180450Z 35012KT 9999 FEW020 07/03 Q1021 NOSIG
  • 180420Z 34012KT 9999 FEW020 07/04 Q1021 NOSIG
  • 180350Z 34013KT 9999 FEW020 07/04 Q1020 NOSIG

TAF TAF EBOS
Valid from the 18 at 06:00 until the 19 at 12:00 UTC


180517Z 1806/1912 35013KT 9999 SCT015 SCT030
PROB30
TEMPO 1806/1810 4500 SHRA
BECMG 1906/1908 29008KT
No reported NOTAMs for that airfield.
2 SIGMETs reported for the Brussels FIR (EBBU) :
 
Severe turbulence
EBBU SIGMET 02 VALID 180700/181100 EBBR
EBBU BRUSSELS FIR SEV TURB OBS E OF E004 FL250/400 MOV E NC=
Severe turbulence
EBBU SIGMET 01 VALID 180300/180700 EBBR
EBBU BRUSSELS FIR SEV TURB FCST ENTIRE FIR FL250/400 MOV E NC=



MET'MAP, your aeronautical weather chart ! - Copyright ORBIFLY December 2007 - Disclaimer

ORBIFLY MET'MAP TEAM :

Programming & Development : Alexandra Zaïnal
Concept & Development : Baudouin d'Aumeries
Co-Development & Prog : Marc-Olivier Méhu
Technical & hardware support : Manuel Goepfert

Contact : metmap@orbifly.com




SOURCES & CREDITS :

   NOAA